Time;durP1;ratioP1;P1;durP2;ratioP2;P2;SDS_P1;SDS_P2;PMS_P1;PMS_P2;Temp;Humidity;BMP_temperature;BMP_pressure;BME280_temperature;BME280_humidity;BME280_pressure;Samples;Min_cycle;Max_cycle;Signal;HPM_P1;HPM_P2
2020/12/08 00:02:16;;;;;;;1.70;0.20;;;4.50;99.90;;;;;;5058782;28;20205;-65
2020/12/08 00:04:42;;;;;;;1.70;0.20;;;4.40;99.90;;;;;;5048554;28;20229;-63
2020/12/08 00:07:09;;;;;;;1.70;0.20;;;4.30;99.90;;;;;;5049291;28;20798;-64
2020/12/08 00:09:36;;;;;;;8.90;4.30;;;4.20;99.90;;;;;;5049107;28;20212;-63
2020/12/08 00:12:02;;;;;;;1.70;0.20;;;4.20;99.90;;;;;;5053564;28;20255;-63
2020/12/08 00:14:28;;;;;;;1.80;0.30;;;4.20;99.90;;;;;;5048751;28;20548;-64
2020/12/08 00:16:53;;;;;;;1.70;0.20;;;4.10;99.90;;;;;;5050070;28;20196;-64
2020/12/08 00:19:19;;;;;;;1.73;0.20;;;4.10;99.90;;;;;;5048867;28;20174;-63
2020/12/08 00:21:45;;;;;;;1.70;0.20;;;4.10;99.90;;;;;;5047291;28;20705;-63
2020/12/08 00:24:12;;;;;;;1.73;0.20;;;4.10;99.90;;;;;;5051345;28;20185;-66
2020/12/08 00:26:39;;;;;;;1.70;0.20;;;4.10;99.90;;;;;;5054509;28;20204;-63
2020/12/08 00:29:08;;;;;;;1.70;0.20;;;4.10;99.90;;;;;;5051115;28;20689;-64
2020/12/08 00:31:34;;;;;;;1.70;0.20;;;4.20;99.90;;;;;;5052021;28;20289;-64
2020/12/08 00:33:59;;;;;;;1.70;0.20;;;4.10;99.90;;;;;;5063639;23;20627;-58
2020/12/08 00:36:26;;;;;;;1.70;0.20;;;4.10;99.90;;;;;;5045968;28;20232;-58
2020/12/08 00:38:52;;;;;;;1.70;0.20;;;4.10;99.90;;;;;;5049657;28;20190;-57
2020/12/08 00:41:19;;;;;;;1.70;0.20;;;4.00;99.90;;;;;;5046531;28;20664;-58
2020/12/08 00:43:45;;;;;;;1.70;0.20;;;3.90;99.90;;;;;;5045717;28;20763;-58
2020/12/08 00:46:19;;;;;;;4.93;2.28;;;3.90;99.90;;;;;;5031442;28;20210;-57
2020/12/08 00:48:45;;;;;;;1.73;0.20;;;3.80;99.90;;;;;;5032074;28;20200;-57
2020/12/08 00:51:10;;;;;;;1.70;0.20;;;3.70;99.90;;;;;;5030095;28;20202;-58
2020/12/08 00:53:36;;;;;;;1.70;0.20;;;3.70;99.90;;;;;;5031797;28;20265;-57
2020/12/08 00:56:08;;;;;;;1.80;0.30;;;3.70;99.90;;;;;;5034898;28;20213;-57
2020/12/08 00:58:34;;;;;;;1.70;0.20;;;3.70;99.90;;;;;;5034888;28;20186;-58
2020/12/08 01:00:59;;;;;;;1.70;0.20;;;3.70;99.90;;;;;;5035882;28;20703;-57
2020/12/08 01:03:25;;;;;;;1.70;0.20;;;3.70;99.90;;;;;;5032795;28;20189;-58
2020/12/08 01:05:50;;;;;;;1.70;0.20;;;3.70;99.90;;;;;;5026689;28;20327;-58
2020/12/08 01:08:16;;;;;;;1.70;0.20;;;3.70;99.90;;;;;;5035145;28;20185;-58
2020/12/08 01:10:41;;;;;;;1.70;0.20;;;3.70;99.90;;;;;;5030439;28;20580;-58
2020/12/08 01:13:07;;;;;;;2.30;1.57;;;3.70;99.90;;;;;;5034159;28;20189;-58
2020/12/08 01:15:32;;;;;;;1.70;0.20;;;3.60;99.90;;;;;;5034668;28;20545;-58
2020/12/08 01:17:58;;;;;;;1.70;0.20;;;3.60;99.90;;;;;;5032374;28;20182;-58
2020/12/08 01:20:23;;;;;;;1.70;0.20;;;3.50;99.90;;;;;;5033158;28;20182;-58
2020/12/08 01:22:51;;;;;;;1.70;0.20;;;3.50;99.90;;;;;;5033354;28;20218;-58
2020/12/08 01:25:16;;;;;;;1.70;0.20;;;3.50;99.90;;;;;;5033637;28;20328;-58
2020/12/08 01:27:42;;;;;;;1.70;0.20;;;3.50;99.90;;;;;;5034505;28;20759;-58
2020/12/08 01:30:07;;;;;;;1.70;0.20;;;3.40;99.90;;;;;;5033479;28;20743;-58
2020/12/08 01:32:33;;;;;;;1.80;0.30;;;3.40;99.90;;;;;;5031139;28;20221;-58
2020/12/08 01:34:58;;;;;;;1.70;0.20;;;3.40;99.90;;;;;;5035332;28;20602;-65
2020/12/08 01:37:24;;;;;;;1.70;0.20;;;3.50;99.90;;;;;;5034173;28;20185;-58
2020/12/08 01:39:49;;;;;;;1.70;0.20;;;3.50;99.90;;;;;;5036913;28;20194;-58
2020/12/08 01:42:15;;;;;;;2.73;2.43;;;3.50;99.90;;;;;;5050731;28;20182;-59
2020/12/08 01:44:47;;;;;;;1.70;0.20;;;3.50;99.90;;;;;;5051691;28;20236;-59
2020/12/08 01:47:15;;;;;;;1.73;0.20;;;3.50;99.90;;;;;;5045204;28;20224;-58
2020/12/08 01:49:42;;;;;;;1.80;0.40;;;3.50;99.90;;;;;;5036509;28;20209;-58
2020/12/08 01:52:08;;;;;;;1.73;0.20;;;3.40;99.90;;;;;;5032698;28;20209;-58
2020/12/08 01:54:33;;;;;;;1.70;0.20;;;3.30;99.90;;;;;;5034127;28;20573;-58
2020/12/08 01:56:59;;;;;;;1.70;0.20;;;3.30;99.90;;;;;;5033617;28;20261;-58
2020/12/08 01:59:25;;;;;;;1.80;0.37;;;3.30;99.90;;;;;;5032477;28;20221;-58
2020/12/08 02:01:50;;;;;;;1.70;0.20;;;3.20;99.90;;;;;;5033536;28;20189;-58
2020/12/08 02:04:16;;;;;;;1.70;0.20;;;3.20;99.90;;;;;;5023686;28;20528;-58
2020/12/08 02:06:41;;;;;;;1.80;0.20;;;3.20;99.90;;;;;;5031369;28;20192;-58
2020/12/08 02:09:07;;;;;;;1.70;0.20;;;3.20;99.90;;;;;;5034855;28;20188;-58
2020/12/08 02:11:32;;;;;;;1.90;0.70;;;3.30;99.90;;;;;;5029273;28;20711;-58
2020/12/08 02:13:58;;;;;;;1.80;0.53;;;3.30;99.90;;;;;;5033234;28;20182;-58
2020/12/08 02:16:23;;;;;;;2.00;0.73;;;3.30;99.90;;;;;;5032229;28;20194;-58
2020/12/08 02:18:49;;;;;;;1.70;0.20;;;3.30;99.90;;;;;;5033395;28;20186;-58
2020/12/08 02:21:16;;;;;;;1.70;0.20;;;3.30;99.90;;;;;;5031202;28;20255;-58
2020/12/08 02:23:49;;;;;;;1.70;0.20;;;3.30;99.90;;;;;;5033979;28;20645;-58
2020/12/08 02:26:15;;;;;;;2.08;0.43;;;3.40;99.90;;;;;;5033213;28;20181;-58
2020/12/08 02:28:40;;;;;;;1.70;0.20;;;3.60;99.90;;;;;;5033307;28;20182;-58
2020/12/08 02:31:06;;;;;;;2.23;1.37;;;3.60;99.90;;;;;;5033636;28;20206;-58
2020/12/08 02:33:31;;;;;;;1.70;0.20;;;3.60;99.90;;;;;;5029234;28;20273;-58
2020/12/08 02:35:57;;;;;;;1.70;0.20;;;3.60;99.90;;;;;;5031858;28;20228;-58
2020/12/08 02:38:24;;;;;;;1.70;0.20;;;3.50;99.90;;;;;;5026861;28;20537;-58
2020/12/08 02:40:50;;;;;;;1.70;0.20;;;3.60;99.90;;;;;;5026648;28;20228;-58
2020/12/08 02:43:15;;;;;;;1.70;0.20;;;3.60;99.90;;;;;;5028894;28;20193;-58
2020/12/08 02:45:41;;;;;;;1.70;0.20;;;3.60;99.90;;;;;;5024810;28;20205;-58
2020/12/08 02:48:07;;;;;;;1.70;0.20;;;3.60;99.90;;;;;;5032267;28;20644;-58
2020/12/08 02:50:33;;;;;;;1.73;0.20;;;3.60;99.90;;;;;;5033233;28;20197;-58
2020/12/08 02:52:58;;;;;;;1.70;0.20;;;3.70;99.90;;;;;;5027381;28;20704;-58
2020/12/08 02:55:24;;;;;;;1.70;0.20;;;3.60;99.90;;;;;;5028375;28;20232;-58
2020/12/08 02:57:49;;;;;;;1.70;0.20;;;3.70;99.90;;;;;;5031886;28;20185;-58
2020/12/08 03:00:15;;;;;;;1.70;0.20;;;3.70;99.90;;;;;;5032301;28;20193;-58
2020/12/08 03:02:40;;;;;;;1.70;0.20;;;3.70;99.90;;;;;;5030343;28;20186;-58
2020/12/08 03:05:06;;;;;;;1.70;0.20;;;3.70;99.90;;;;;;5032099;28;20232;-58
2020/12/08 03:07:32;;;;;;;1.70;0.20;;;3.70;99.90;;;;;;5031326;28;20185;-58
2020/12/08 03:09:58;;;;;;;1.70;0.20;;;3.80;99.90;;;;;;5031967;28;20198;-58
2020/12/08 03:12:23;;;;;;;1.70;0.20;;;3.80;99.90;;;;;;5025352;28;20182;-58
2020/12/08 03:14:48;;;;;;;1.70;0.20;;;3.90;99.90;;;;;;5030740;28;20527;-58
2020/12/08 03:17:14;;;;;;;1.70;0.20;;;3.90;99.90;;;;;;5032078;28;20269;-58
2020/12/08 03:19:40;;;;;;;1.70;0.20;;;3.90;99.90;;;;;;5032614;28;20190;-58
2020/12/08 03:22:05;;;;;;;1.80;0.43;;;3.90;99.90;;;;;;5026606;28;20206;-59
2020/12/08 03:24:31;;;;;;;1.70;0.20;;;3.90;99.90;;;;;;5028779;28;20221;-58
2020/12/08 03:26:57;;;;;;;1.70;0.30;;;3.90;99.90;;;;;;5032307;28;20533;-58
2020/12/08 03:29:22;;;;;;;1.70;0.20;;;3.90;99.90;;;;;;5031139;28;20181;-58
2020/12/08 03:31:48;;;;;;;1.70;0.20;;;3.90;99.90;;;;;;5032201;28;20190;-58
2020/12/08 03:34:15;;;;;;;1.70;0.20;;;3.90;99.90;;;;;;5025124;28;20328;-58
2020/12/08 03:36:41;;;;;;;1.80;0.65;;;3.90;99.90;;;;;;5031374;28;20845;-58
2020/12/08 03:39:06;;;;;;;1.70;0.20;;;4.00;99.90;;;;;;5031360;28;20194;-58
2020/12/08 03:41:32;;;;;;;1.70;0.20;;;4.00;99.90;;;;;;5030675;28;20451;-58
2020/12/08 03:43:58;;;;;;;1.70;0.20;;;4.00;99.90;;;;;;5031173;28;20188;-58
2020/12/08 03:46:25;;;;;;;1.70;0.20;;;4.00;99.90;;;;;;5028922;28;20182;-59
2020/12/08 03:48:51;;;;;;;2.00;0.60;;;4.00;99.90;;;;;;5029771;28;20304;-58
2020/12/08 03:51:18;;;;;;;1.70;0.20;;;4.00;99.90;;;;;;5031396;28;20216;-58
2020/12/08 03:53:45;;;;;;;1.70;0.20;;;4.00;99.90;;;;;;5031426;28;20255;-58
2020/12/08 03:56:12;;;;;;;2.90;1.88;;;4.00;99.90;;;;;;5023440;28;20213;-58
2020/12/08 03:58:38;;;;;;;1.70;0.20;;;3.90;99.90;;;;;;5031376;28;20641;-58
2020/12/08 04:01:07;;;;;;;3.70;2.28;;;3.90;99.90;;;;;;5032125;28;20365;-58
2020/12/08 04:03:32;;;;;;;2.80;1.85;;;3.90;99.90;;;;;;5030819;28;20190;-58
2020/12/08 04:06:04;;;;;;;1.70;0.20;;;3.80;99.90;;;;;;5023473;28;20209;-58
2020/12/08 04:08:30;;;;;;;1.73;0.20;;;3.90;99.90;;;;;;5037690;28;20200;-58
2020/12/08 04:10:56;;;;;;;1.70;0.20;;;3.90;99.90;;;;;;5029420;28;20205;-58
2020/12/08 04:13:22;;;;;;;1.70;0.20;;;3.90;99.90;;;;;;5031378;28;20436;-58
2020/12/08 04:15:48;;;;;;;1.70;0.20;;;3.80;99.90;;;;;;5031862;28;20507;-58
2020/12/08 04:18:15;;;;;;;1.70;0.20;;;3.80;99.90;;;;;;5031137;28;20190;-58
2020/12/08 04:20:42;;;;;;;1.70;0.20;;;3.80;99.90;;;;;;5031045;28;20189;-58
2020/12/08 04:23:14;;;;;;;1.70;0.20;;;3.80;99.90;;;;;;5029731;28;20268;-58
2020/12/08 04:25:40;;;;;;;1.73;0.20;;;3.80;99.90;;;;;;5029210;28;20205;-58
2020/12/08 04:28:06;;;;;;;1.70;0.20;;;3.80;99.90;;;;;;5026471;28;20182;-58
2020/12/08 04:30:33;;;;;;;1.80;0.40;;;3.90;99.90;;;;;;5034636;28;20270;-58
2020/12/08 04:32:59;;;;;;;1.70;0.20;;;3.90;99.90;;;;;;5033202;28;20200;-58
2020/12/08 04:35:24;;;;;;;1.70;0.20;;;3.90;99.90;;;;;;5035376;28;20213;-58
2020/12/08 04:37:50;;;;;;;1.70;0.20;;;3.90;99.90;;;;;;5034247;28;20189;-58
2020/12/08 04:40:15;;;;;;;2.33;0.53;;;3.90;99.90;;;;;;5034593;28;20184;-58
2020/12/08 04:42:49;;;;;;;1.70;0.20;;;3.80;99.90;;;;;;5034454;28;20257;-58
2020/12/08 04:45:16;;;;;;;1.70;0.20;;;3.80;99.90;;;;;;5033818;28;20797;-58
2020/12/08 04:47:45;;;;;;;1.70;0.20;;;3.90;99.90;;;;;;5034970;28;20190;-58
2020/12/08 04:50:15;;;;;;;1.70;0.20;;;3.80;99.90;;;;;;5035154;28;20209;-58
2020/12/08 04:52:42;;;;;;;1.70;0.20;;;3.80;99.90;;;;;;5034465;28;20182;-58
2020/12/08 04:55:08;;;;;;;1.70;0.20;;;3.80;99.90;;;;;;5024605;28;20657;-58
2020/12/08 04:57:34;;;;;;;1.70;0.20;;;3.80;99.90;;;;;;5036058;28;20239;-59
2020/12/08 05:00:10;;;;;;;1.70;0.20;;;3.80;99.90;;;;;;5032838;28;20464;-58
2020/12/08 05:02:49;;;;;;;1.70;0.20;;;3.90;99.90;;;;;;5034542;28;20248;-58
2020/12/08 05:05:16;;;;;;;1.70;0.20;;;3.90;99.90;;;;;;5026840;28;20202;-58
2020/12/08 05:07:42;;;;;;;1.80;0.20;;;3.90;99.90;;;;;;5026959;28;20187;-58
2020/12/08 05:10:09;;;;;;;1.70;0.20;;;3.90;99.90;;;;;;5034964;28;20236;-58
2020/12/08 05:12:35;;;;;;;1.70;0.20;;;3.90;99.90;;;;;;5034767;28;20774;-58
2020/12/08 05:15:00;;;;;;;1.70;0.20;;;3.90;99.90;;;;;;5031185;28;20250;-58
2020/12/08 05:17:28;;;;;;;1.70;0.30;;;4.00;99.90;;;;;;5034337;28;20592;-58
2020/12/08 05:20:05;;;;;;;1.70;0.20;;;4.00;99.90;;;;;;5034673;28;20205;-58
2020/12/08 05:22:30;;;;;;;1.70;0.20;;;3.90;99.90;;;;;;5032779;28;20189;-58
2020/12/08 05:25:15;;;;;;;1.70;0.20;;;3.90;99.90;;;;;;5034666;28;20205;-58
2020/12/08 05:27:50;;;;;;;1.73;0.20;;;3.80;99.90;;;;;;5034428;28;20197;-58
2020/12/08 05:30:16;;;;;;;7.68;3.05;;;3.90;99.90;;;;;;5033196;28;20213;-58
2020/12/08 05:32:43;;;;;;;2.83;1.55;;;3.80;99.90;;;;;;5032880;28;20182;-58
2020/12/08 05:35:11;;;;;;;2.00;0.40;;;3.70;99.90;;;;;;5034331;28;20209;-59
2020/12/08 05:37:41;;;;;;;4.78;2.25;;;3.60;99.90;;;;;;5029524;28;20183;-58
2020/12/08 05:40:12;;;;;;;6.85;5.13;;;3.70;99.90;;;;;;5031801;28;20307;-58
2020/12/08 05:42:43;;;;;;;1.70;0.30;;;3.60;99.90;;;;;;5032260;28;20193;-58
2020/12/08 05:45:11;;;;;;;2.58;0.52;;;3.60;99.90;;;;;;5033461;28;20264;-58
2020/12/08 05:47:53;;;;;;;3.45;2.95;;;3.60;99.90;;;;;;5030093;28;20209;-63
2020/12/08 05:50:20;;;;;;;4.78;3.20;;;3.50;99.90;;;;;;5039983;28;20235;-58
2020/12/08 05:52:51;;;;;;;1.70;0.20;;;3.50;99.90;;;;;;5033581;28;20186;-58
2020/12/08 05:55:22;;;;;;;14.48;8.23;;;3.50;99.90;;;;;;5022229;28;20196;-58
2020/12/08 05:57:49;;;;;;;2.50;1.30;;;3.50;99.90;;;;;;5034679;28;20214;-58
2020/12/08 06:00:28;;;;;;;6.00;3.58;;;3.50;99.90;;;;;;5034186;28;20220;-62
2020/12/08 06:03:10;;;;;;;2.10;1.10;;;3.50;99.90;;;;;;5035379;28;20700;-58
2020/12/08 06:05:36;;;;;;;1.70;0.20;;;3.50;99.90;;;;;;5031848;28;20216;-59
2020/12/08 06:08:40;;;;;;;2.38;1.58;;;3.50;99.90;;;;;;5035818;28;20218;-58
2020/12/08 06:11:05;;;;;;;1.75;0.43;;;3.60;99.90;;;;;;5029255;28;20568;-59
2020/12/08 06:13:32;;;;;;;1.70;0.20;;;3.60;99.90;;;;;;5035122;28;20184;-58
2020/12/08 06:15:59;;;;;;;1.95;0.82;;;3.70;99.90;;;;;;5045233;28;20182;-58
2020/12/08 06:18:38;;;;;;;1.70;0.20;;;3.60;99.90;;;;;;5055187;28;20190;-58
2020/12/08 06:21:20;;;;;;;3.17;1.30;;;3.50;99.90;;;;;;5048614;28;20249;-58
2020/12/08 06:23:52;;;;;;;9.40;5.20;;;3.50;99.90;;;;;;5047696;28;20186;-59
2020/12/08 06:26:25;;;;;;;1.70;0.20;;;3.50;99.90;;;;;;5041663;28;20193;-58
2020/12/08 06:28:52;;;;;;;1.70;0.20;;;3.50;99.90;;;;;;5032210;28;20197;-58
2020/12/08 06:31:17;;;;;;;1.70;0.20;;;3.50;99.90;;;;;;5041550;28;20205;-58
2020/12/08 06:33:48;;;;;;;1.70;0.20;;;3.50;99.90;;;;;;5036874;28;20177;-58
2020/12/08 06:36:14;;;;;;;1.70;0.20;;;3.50;99.90;;;;;;5035683;28;20189;-58
2020/12/08 06:38:40;;;;;;;1.70;0.20;;;3.50;99.90;;;;;;5040958;28;20263;-58
2020/12/08 06:41:05;;;;;;;1.70;0.20;;;3.50;99.90;;;;;;5051927;28;20429;-58
2020/12/08 06:43:35;;;;;;;1.70;0.20;;;3.50;99.90;;;;;;5054268;28;20578;-59
2020/12/08 06:46:10;;;;;;;1.73;0.20;;;3.50;99.90;;;;;;5050687;28;20205;-59
2020/12/08 06:48:36;;;;;;;1.70;0.20;;;3.50;99.90;;;;;;5056057;28;20189;-58
2020/12/08 06:51:03;;;;;;;1.70;0.20;;;3.40;99.90;;;;;;5035349;28;20743;-58
2020/12/08 06:53:29;;;;;;;1.90;0.68;;;3.50;99.90;;;;;;5033897;28;20815;-58
2020/12/08 06:55:55;;;;;;;8.13;4.60;;;3.50;99.90;;;;;;5033713;28;20194;-58
2020/12/08 06:58:20;;;;;;;4.27;2.00;;;3.30;99.90;;;;;;5034797;28;20216;-58
2020/12/08 07:00:46;;;;;;;2.87;1.60;;;3.10;99.90;;;;;;5029131;28;20189;-58
2020/12/08 07:03:15;;;;;;;1.70;0.20;;;3.20;99.90;;;;;;5024361;28;20196;-59
2020/12/08 07:05:41;;;;;;;1.70;0.20;;;3.20;99.90;;;;;;5034305;28;20232;-58
2020/12/08 07:08:08;;;;;;;1.70;0.20;;;3.30;99.90;;;;;;5034187;28;20281;-57
2020/12/08 07:10:41;;;;;;;4.22;1.85;;;3.30;99.90;;;;;;5036719;28;20885;-58
2020/12/08 07:13:15;;;;;;;4.93;1.52;;;3.20;99.90;;;;;;5038405;28;20182;-62
2020/12/08 07:15:41;;;;;;;1.70;0.20;;;3.20;99.90;;;;;;5039367;28;20197;-59
2020/12/08 07:18:09;;;;;;;1.70;0.20;;;3.20;99.90;;;;;;5042096;28;20191;-60
2020/12/08 07:20:35;;;;;;;1.70;0.20;;;3.30;99.90;;;;;;5045372;28;20190;-62
2020/12/08 07:23:05;;;;;;;1.70;0.20;;;3.30;99.90;;;;;;5043724;28;20186;-59
2020/12/08 07:25:33;;;;;;;2.00;0.90;;;3.30;99.90;;;;;;5038684;28;20577;-62
2020/12/08 07:27:59;;;;;;;1.70;0.20;;;3.10;99.90;;;;;;5031596;28;20231;-59
2020/12/08 07:30:27;;;;;;;1.70;0.20;;;3.10;99.90;;;;;;5032478;28;20306;-59
2020/12/08 07:32:54;;;;;;;1.70;0.20;;;3.00;99.90;;;;;;5030981;28;20178;-59
2020/12/08 07:35:30;;;;;;;1.70;0.30;;;3.00;99.90;;;;;;5031421;28;20758;-58
2020/12/08 07:37:58;;;;;;;1.95;0.65;;;2.90;99.90;;;;;;5027369;28;20192;-58
2020/12/08 07:40:35;;;;;;;4.50;2.65;;;3.00;99.90;;;;;;5032654;28;20344;-59
2020/12/08 07:43:02;;;;;;;6.78;3.67;;;3.00;99.90;;;;;;5030863;28;20545;-58
2020/12/08 07:45:29;;;;;;;4.03;2.83;;;3.00;99.90;;;;;;5027831;28;20689;-58
2020/12/08 07:47:58;;;;;;;1.70;0.30;;;3.00;99.90;;;;;;5031859;28;20221;-58
2020/12/08 07:50:29;;;;;;;1.75;0.25;;;3.00;99.90;;;;;;5033572;28;20315;-59
2020/12/08 07:53:03;;;;;;;1.80;0.38;;;3.10;99.90;;;;;;5028839;28;20179;-60
2020/12/08 07:55:30;;;;;;;1.77;0.20;;;3.10;99.90;;;;;;5031724;28;20209;-58
2020/12/08 07:57:57;;;;;;;14.73;3.50;;;3.10;99.90;;;;;;5031990;28;20189;-58
2020/12/08 08:00:23;;;;;;;2.10;0.68;;;3.10;99.90;;;;;;5031272;28;20197;-58
2020/12/08 08:02:48;;;;;;;1.70;0.20;;;3.10;99.90;;;;;;5032325;28;20521;-58
2020/12/08 08:05:14;;;;;;;1.70;0.20;;;3.20;99.90;;;;;;5023260;28;20221;-59
2020/12/08 08:07:39;;;;;;;1.70;0.20;;;3.20;99.90;;;;;;5035868;28;20236;-60
2020/12/08 08:10:05;;;;;;;1.70;0.20;;;3.20;99.90;;;;;;5028492;28;20224;-58
2020/12/08 08:12:30;;;;;;;1.80;0.20;;;3.20;99.90;;;;;;5031950;28;20182;-58
2020/12/08 08:14:56;;;;;;;1.73;0.40;;;3.20;99.90;;;;;;5033103;28;20209;-58
2020/12/08 08:17:22;;;;;;;1.70;0.20;;;3.30;99.90;;;;;;5032338;28;20178;-58
2020/12/08 08:19:48;;;;;;;1.70;0.20;;;3.40;99.90;;;;;;5032097;28;20182;-58
2020/12/08 08:22:13;;;;;;;1.70;0.20;;;3.40;99.90;;;;;;5031575;28;20182;-59
2020/12/08 08:24:39;;;;;;;1.70;0.20;;;3.50;99.90;;;;;;5026867;28;20202;-58
2020/12/08 08:27:04;;;;;;;1.70;0.20;;;3.50;99.90;;;;;;5030826;28;20217;-58
2020/12/08 08:29:30;;;;;;;1.80;0.20;;;3.60;99.90;;;;;;5031258;28;20198;-58
2020/12/08 08:31:56;;;;;;;8.23;2.87;;;3.60;99.90;;;;;;5029554;28;20212;-58
2020/12/08 08:34:21;;;;;;;2.43;0.70;;;3.60;99.90;;;;;;5032572;28;20210;-59
2020/12/08 08:36:51;;;;;;;1.70;0.20;;;3.50;99.90;;;;;;5039668;28;20182;-58
2020/12/08 08:39:17;;;;;;;1.73;0.20;;;3.50;99.90;;;;;;5049424;28;20193;-63
2020/12/08 08:41:43;;;;;;;2.00;0.50;;;3.50;99.90;;;;;;5046261;28;20229;-60
2020/12/08 08:44:09;;;;;;;1.70;0.20;;;3.60;99.90;;;;;;5052712;28;20433;-59
2020/12/08 08:46:34;;;;;;;1.70;0.20;;;3.60;99.90;;;;;;5051046;28;20213;-62
2020/12/08 08:49:00;;;;;;;2.27;0.97;;;3.70;99.90;;;;;;5051648;28;20253;-58
2020/12/08 08:51:25;;;;;;;1.90;0.43;;;3.80;99.90;;;;;;5052268;28;20209;-58
2020/12/08 08:53:51;;;;;;;1.70;0.20;;;3.70;99.90;;;;;;5048818;28;20174;-58
2020/12/08 08:56:19;;;;;;;4.23;2.20;;;3.80;99.90;;;;;;5046263;28;20207;-64
2020/12/08 08:58:44;;;;;;;1.80;0.20;;;3.80;99.90;;;;;;5049608;28;20250;-59
2020/12/08 09:01:12;;;;;;;1.70;0.20;;;3.80;99.90;;;;;;5047765;28;20193;-59
2020/12/08 09:03:38;;;;;;;1.70;0.20;;;3.90;99.90;;;;;;5046488;28;20178;-58
2020/12/08 09:06:04;;;;;;;2.30;1.02;;;4.00;99.90;;;;;;5048084;28;20332;-59
2020/12/08 09:08:31;;;;;;;1.70;0.20;;;4.00;99.90;;;;;;5046532;28;20190;-58
2020/12/08 09:10:56;;;;;;;1.73;0.20;;;4.10;99.90;;;;;;5042231;28;20222;-58
2020/12/08 09:13:22;;;;;;;1.70;0.20;;;4.20;99.90;;;;;;5030961;28;20249;-57
2020/12/08 09:15:48;;;;;;;3.23;2.93;;;4.20;99.90;;;;;;5030334;28;20273;-59
2020/12/08 09:18:13;;;;;;;1.70;0.20;;;4.20;99.90;;;;;;5030713;28;20187;-59
2020/12/08 09:20:39;;;;;;;1.70;0.20;;;4.20;99.90;;;;;;5036406;28;20193;-59
2020/12/08 09:23:05;;;;;;;2.23;0.77;;;4.20;99.90;;;;;;5035270;28;20181;-59
2020/12/08 09:25:30;;;;;;;1.70;0.20;;;4.20;99.90;;;;;;5051479;28;20204;-59
2020/12/08 09:27:56;;;;;;;1.70;0.20;;;4.20;99.90;;;;;;5052961;28;20197;-62
2020/12/08 09:30:22;;;;;;;1.80;0.20;;;4.30;99.90;;;;;;5052698;28;20278;-58
2020/12/08 09:32:49;;;;;;;1.73;0.20;;;4.30;99.90;;;;;;5046690;28;20167;-58
2020/12/08 09:35:15;;;;;;;1.70;0.20;;;4.20;99.90;;;;;;5050780;28;20237;-59
2020/12/08 09:37:42;;;;;;;1.70;0.20;;;4.30;99.90;;;;;;5051854;28;20253;-59
2020/12/08 09:40:08;;;;;;;3.47;1.77;;;4.20;99.90;;;;;;5053486;28;20178;-59
2020/12/08 09:42:40;;;;;;;1.77;0.37;;;4.10;99.90;;;;;;5048065;28;20210;-59
2020/12/08 09:45:07;;;;;;;1.70;0.20;;;4.10;99.90;;;;;;5052977;28;20301;-58
2020/12/08 09:47:34;;;;;;;1.80;0.30;;;4.10;99.90;;;;;;5054810;28;20178;-58
2020/12/08 09:50:02;;;;;;;2.13;0.93;;;4.10;99.90;;;;;;5043893;28;20256;-62
2020/12/08 09:52:29;;;;;;;1.70;0.20;;;4.20;99.90;;;;;;5038024;28;20631;-58
2020/12/08 09:54:54;;;;;;;1.70;0.20;;;4.20;99.90;;;;;;5035275;28;20209;-58
2020/12/08 09:57:20;;;;;;;1.70;0.20;;;4.30;99.90;;;;;;5031577;28;20182;-58
2020/12/08 09:59:45;;;;;;;10.13;9.53;;;4.30;99.90;;;;;;5033966;28;20225;-59
2020/12/08 10:02:11;;;;;;;1.70;0.20;;;4.30;99.90;;;;;;5033312;28;20186;-58
2020/12/08 10:04:36;;;;;;;1.70;0.20;;;4.30;99.90;;;;;;5032138;28;20546;-58
2020/12/08 10:07:02;;;;;;;1.70;0.20;;;4.40;99.90;;;;;;5038109;28;20273;-59
2020/12/08 10:09:27;;;;;;;2.00;1.07;;;4.40;99.90;;;;;;5033924;28;20198;-59
2020/12/08 10:11:53;;;;;;;1.80;0.40;;;4.40;99.90;;;;;;5031541;28;20217;-58
2020/12/08 10:14:19;;;;;;;1.70;0.20;;;4.40;99.90;;;;;;5033735;28;20198;-58
2020/12/08 10:16:44;;;;;;;1.70;0.30;;;4.40;99.90;;;;;;5030026;28;20209;-62
2020/12/08 10:19:10;;;;;;;1.70;0.20;;;4.40;99.90;;;;;;5033111;28;20573;-58
2020/12/08 10:21:36;;;;;;;1.70;0.20;;;4.40;99.90;;;;;;5035671;28;20259;-59
2020/12/08 10:24:03;;;;;;;1.70;0.20;;;4.40;99.90;;;;;;5032367;28;20186;-59
2020/12/08 10:26:29;;;;;;;3.92;1.02;;;4.40;99.90;;;;;;5033085;28;20186;-58
2020/12/08 10:28:54;;;;;;;1.70;0.20;;;4.40;99.90;;;;;;5025962;28;20613;-58
2020/12/08 10:31:20;;;;;;;1.70;0.20;;;4.40;99.90;;;;;;5033940;28;20208;-58
2020/12/08 10:33:46;;;;;;;1.80;0.20;;;4.60;99.90;;;;;;5028300;28;20174;-58
2020/12/08 10:36:12;;;;;;;1.73;0.20;;;4.60;99.90;;;;;;5033322;28;20684;-59
2020/12/08 10:38:38;;;;;;;1.70;0.20;;;4.70;99.90;;;;;;5029202;28;20186;-59
2020/12/08 10:41:04;;;;;;;1.80;0.50;;;4.70;99.90;;;;;;5035673;28;20479;-58
2020/12/08 10:43:30;;;;;;;1.77;0.30;;;4.70;99.90;;;;;;5031541;28;20186;-58
2020/12/08 10:45:55;;;;;;;1.77;0.30;;;4.80;99.90;;;;;;5032384;28;20615;-59
2020/12/08 10:48:21;;;;;;;1.70;0.20;;;4.80;99.90;;;;;;5033970;28;20284;-58
2020/12/08 10:50:47;;;;;;;1.70;0.20;;;4.90;99.90;;;;;;5029597;28;20206;-58
2020/12/08 10:53:12;;;;;;;1.70;0.20;;;5.00;99.90;;;;;;5030864;28;20669;-58
2020/12/08 10:55:38;;;;;;;2.10;1.37;;;5.00;99.90;;;;;;5028902;28;20569;-58
2020/12/08 10:58:03;;;;;;;1.80;0.20;;;4.90;99.90;;;;;;5028921;28;20177;-58
2020/12/08 11:00:33;;;;;;;4.13;3.23;;;4.90;99.90;;;;;;5030000;28;20182;-57
2020/12/08 11:02:59;;;;;;;1.73;0.30;;;5.00;99.90;;;;;;5023671;28;20796;-58
2020/12/08 11:05:26;;;;;;;1.70;0.20;;;4.90;99.90;;;;;;5030144;28;20231;-58
2020/12/08 11:07:51;;;;;;;3.65;2.38;;;4.80;99.90;;;;;;5032413;28;20178;-59
2020/12/08 11:10:17;;;;;;;1.70;0.20;;;4.70;99.90;;;;;;5030782;28;20205;-58
2020/12/08 11:12:42;;;;;;;2.10;0.93;;;4.70;99.90;;;;;;5028713;28;20205;-58
2020/12/08 11:15:08;;;;;;;4.23;2.10;;;4.70;99.90;;;;;;5025958;28;20212;-58
2020/12/08 11:17:36;;;;;;;1.70;0.27;;;4.60;99.90;;;;;;5026367;28;20205;-58
2020/12/08 11:20:04;;;;;;;3.85;2.35;;;4.60;99.90;;;;;;5027115;28;20194;-58
2020/12/08 11:22:31;;;;;;;1.70;0.20;;;4.60;99.90;;;;;;5026183;28;20186;-58
2020/12/08 11:24:57;;;;;;;1.70;0.20;;;4.70;99.90;;;;;;5026125;28;20593;-58
2020/12/08 11:27:23;;;;;;;1.70;0.30;;;4.80;99.90;;;;;;5027952;28;20182;-58
2020/12/08 11:29:48;;;;;;;1.80;0.30;;;4.80;99.90;;;;;;5031338;28;20219;-58
2020/12/08 11:32:17;;;;;;;2.67;1.07;;;4.90;99.90;;;;;;5022573;28;20190;-59
2020/12/08 11:34:44;;;;;;;1.70;0.20;;;4.90;99.90;;;;;;5022622;28;20217;-59
2020/12/08 11:37:10;;;;;;;10.38;6.30;;;4.80;99.90;;;;;;5038737;28;20186;-64
2020/12/08 11:39:35;;;;;;;3.20;0.50;;;4.90;99.90;;;;;;5046297;28;20215;-59
2020/12/08 11:42:05;;;;;;;2.93;1.07;;;4.90;99.90;;;;;;5049361;28;20273;-58
2020/12/08 11:44:30;;;;;;;2.10;0.40;;;4.90;99.90;;;;;;5047006;28;20205;-58
2020/12/08 11:46:56;;;;;;;1.70;0.20;;;5.00;99.90;;;;;;5034395;28;20192;-59
2020/12/08 11:49:22;;;;;;;1.70;0.20;;;5.00;99.90;;;;;;5035377;28;20561;-58
2020/12/08 11:51:48;;;;;;;3.60;0.73;;;5.00;99.90;;;;;;5032105;28;20468;-57
2020/12/08 11:54:14;;;;;;;1.70;0.20;;;5.10;99.90;;;;;;5032081;28;20283;-59
2020/12/08 11:56:39;;;;;;;1.90;0.50;;;5.00;99.90;;;;;;5032335;28;20189;-58
2020/12/08 11:59:05;;;;;;;1.70;0.20;;;5.10;99.90;;;;;;5032477;28;20194;-58
2020/12/08 12:01:31;;;;;;;1.70;0.20;;;5.00;99.90;;;;;;5029754;28;20576;-59
2020/12/08 12:03:56;;;;;;;2.80;0.73;;;5.10;99.90;;;;;;5019579;28;20656;-57
2020/12/08 12:06:22;;;;;;;5.53;3.40;;;5.20;99.90;;;;;;5028889;28;20277;-58
2020/12/08 12:08:47;;;;;;;1.77;0.37;;;5.30;99.90;;;;;;5030971;28;20182;-59
2020/12/08 12:11:13;;;;;;;1.70;0.20;;;5.30;99.90;;;;;;5029881;28;20201;-58
2020/12/08 12:13:38;;;;;;;1.70;0.20;;;5.40;99.90;;;;;;5032363;28;20531;-59
2020/12/08 12:16:04;;;;;;;1.70;0.20;;;5.30;99.90;;;;;;5029156;28;20835;-58
2020/12/08 12:18:29;;;;;;;2.63;0.73;;;5.40;99.90;;;;;;5031627;28;20246;-58
2020/12/08 12:20:55;;;;;;;3.50;1.33;;;5.40;99.90;;;;;;5029526;28;20177;-58
2020/12/08 12:23:20;;;;;;;1.80;0.20;;;5.40;99.90;;;;;;5030729;28;20186;-58
2020/12/08 12:25:46;;;;;;;1.73;0.20;;;5.40;99.90;;;;;;5033751;28;20210;-58
2020/12/08 12:28:11;;;;;;;1.70;0.20;;;5.40;99.90;;;;;;5039758;28;20221;-59
2020/12/08 12:30:37;;;;;;;1.70;0.20;;;5.40;99.90;;;;;;5050094;28;20213;-59
2020/12/08 12:33:03;;;;;;;1.70;0.20;;;5.40;99.90;;;;;;5046976;28;20185;-59
2020/12/08 12:35:29;;;;;;;4.70;1.80;;;5.40;99.90;;;;;;5048359;28;20460;-59
2020/12/08 12:37:54;;;;;;;13.70;3.50;;;5.40;99.90;;;;;;5047833;28;20196;-58
2020/12/08 12:40:20;;;;;;;1.90;0.20;;;5.40;99.90;;;;;;5048478;28;20197;-58
2020/12/08 12:42:45;;;;;;;5.67;4.30;;;5.40;99.90;;;;;;5044665;28;20320;-58
2020/12/08 12:45:11;;;;;;;1.80;0.57;;;5.30;99.90;;;;;;5032084;28;20347;-58
2020/12/08 12:47:36;;;;;;;1.70;0.20;;;5.30;99.90;;;;;;5030231;28;20201;-58
2020/12/08 12:50:05;;;;;;;5.20;0.67;;;5.30;99.90;;;;;;5032619;28;20201;-58
2020/12/08 12:52:31;;;;;;;1.70;0.20;;;5.30;99.90;;;;;;5043254;28;20188;-60
2020/12/08 12:54:56;;;;;;;1.70;0.20;;;5.30;99.90;;;;;;5063705;22;20586;-65
2020/12/08 12:57:22;;;;;;;1.70;0.20;;;5.30;99.90;;;;;;5053877;28;20262;-63